sensor_id;sensor_type;location;lat;lon;timestamp;pressure;altitude;pressure_sealevel;temperature;humidity
56456;BME280;42354;53.218;6.564;2023-09-07T00:01:06;46972.91;;;-142.92;83.74
56456;BME280;42354;53.218;6.564;2023-09-07T00:03:32;46966.75;;;-142.92;84.07
56456;BME280;42354;53.218;6.564;2023-09-07T00:05:57;46970.88;;;-142.92;84.08
56456;BME280;42354;53.218;6.564;2023-09-07T00:08:23;46972.91;;;-142.92;84.21
56456;BME280;42354;53.218;6.564;2023-09-07T00:10:50;46968.81;;;-142.92;84.46
56456;BME280;42354;53.218;6.564;2023-09-07T00:13:15;46966.75;;;-142.92;84.42
56456;BME280;42354;53.218;6.564;2023-09-07T00:15:42;46970.88;;;-142.92;84.64
56456;BME280;42354;53.218;6.564;2023-09-07T00:18:08;46983.19;;;-142.92;84.85
56456;BME280;42354;53.218;6.564;2023-09-07T00:20:33;46981.13;;;-142.92;84.84
56456;BME280;42354;53.218;6.564;2023-09-07T00:22:59;46970.88;;;-142.92;85.20
56456;BME280;42354;53.218;6.564;2023-09-07T00:25:26;46977.03;;;-142.92;85.35
56456;BME280;42354;53.218;6.564;2023-09-07T00:27:51;46977.03;;;-142.92;85.62
56456;BME280;42354;53.218;6.564;2023-09-07T00:30:18;46977.03;;;-142.92;85.86
56456;BME280;42354;53.218;6.564;2023-09-07T00:32:44;46974.97;;;-142.92;86.35
56456;BME280;42354;53.218;6.564;2023-09-07T00:35:09;46966.75;;;-142.92;86.63
56456;BME280;42354;53.218;6.564;2023-09-07T00:37:35;46981.13;;;-142.92;86.88
56456;BME280;42354;53.218;6.564;2023-09-07T00:40:03;46964.72;;;-142.92;87.21
56456;BME280;42354;53.218;6.564;2023-09-07T00:42:29;46977.03;;;-142.92;87.65
56456;BME280;42354;53.218;6.564;2023-09-07T00:44:54;46954.44;;;-142.92;88.00
56456;BME280;42354;53.218;6.564;2023-09-07T00:47:21;46970.88;;;-142.92;88.43
56456;BME280;42354;53.218;6.564;2023-09-07T00:49:46;46962.66;;;-142.92;88.71
56456;BME280;42354;53.218;6.564;2023-09-07T00:52:12;46964.72;;;-142.92;89.15
56456;BME280;42354;53.218;6.564;2023-09-07T00:54:37;46974.97;;;-142.92;89.50
56456;BME280;42354;53.218;6.564;2023-09-07T00:57:06;46964.72;;;-142.92;89.96
56456;BME280;42354;53.218;6.564;2023-09-07T00:59:33;46977.03;;;-142.92;90.46
56456;BME280;42354;53.218;6.564;2023-09-07T01:01:58;46983.19;;;-142.92;90.89
56456;BME280;42354;53.218;6.564;2023-09-07T01:04:24;46970.88;;;-142.92;90.84
56456;BME280;42354;53.218;6.564;2023-09-07T01:06:56;46979.06;;;-142.92;90.78
56456;BME280;42354;53.218;6.564;2023-09-07T01:09:26;46966.75;;;-142.92;91.28
56456;BME280;42354;53.218;6.564;2023-09-07T01:11:53;46979.06;;;-142.92;91.31
56456;BME280;42354;53.218;6.564;2023-09-07T01:14:18;46974.97;;;-142.92;91.42
56456;BME280;42354;53.218;6.564;2023-09-07T01:16:45;46958.56;;;-142.92;91.58
56456;BME280;42354;53.218;6.564;2023-09-07T01:19:11;46972.91;;;-142.92;91.56
56456;BME280;42354;53.218;6.564;2023-09-07T01:21:38;46977.03;;;-142.92;91.69
56456;BME280;42354;53.218;6.564;2023-09-07T01:24:11;46983.19;;;-142.92;91.18
56456;BME280;42354;53.218;6.564;2023-09-07T01:26:38;46987.28;;;-142.92;91.74
56456;BME280;42354;53.218;6.564;2023-09-07T01:29:08;46979.06;;;-142.92;91.80
56456;BME280;42354;53.218;6.564;2023-09-07T01:31:37;46985.22;;;-142.92;91.78
56456;BME280;42354;53.218;6.564;2023-09-07T01:34:05;46972.91;;;-142.92;92.23
56456;BME280;42354;53.218;6.564;2023-09-07T01:36:32;46981.13;;;-142.92;92.84
56456;BME280;42354;53.218;6.564;2023-09-07T01:38:58;46958.56;;;-142.92;93.13
56456;BME280;42354;53.218;6.564;2023-09-07T01:41:23;46979.06;;;-142.92;93.25
56456;BME280;42354;53.218;6.564;2023-09-07T01:43:48;46981.13;;;-142.92;93.39
56456;BME280;42354;53.218;6.564;2023-09-07T01:46:14;46979.06;;;-142.92;93.92
56456;BME280;42354;53.218;6.564;2023-09-07T01:48:40;46974.97;;;-142.92;94.08
56456;BME280;42354;53.218;6.564;2023-09-07T01:51:07;46974.97;;;-142.92;94.71
56456;BME280;42354;53.218;6.564;2023-09-07T01:53:33;46974.97;;;-142.92;95.29
56456;BME280;42354;53.218;6.564;2023-09-07T01:55:58;46960.59;;;-142.92;95.52
56456;BME280;42354;53.218;6.564;2023-09-07T01:58:24;46974.97;;;-142.92;95.72
56456;BME280;42354;53.218;6.564;2023-09-07T02:00:50;46979.06;;;-142.92;96.22
56456;BME280;42354;53.218;6.564;2023-09-07T02:03:15;46968.81;;;-142.92;96.60
56456;BME280;42354;53.218;6.564;2023-09-07T02:05:41;46974.97;;;-142.92;96.99
56456;BME280;42354;53.218;6.564;2023-09-07T02:08:06;46970.88;;;-142.92;97.30
56456;BME280;42354;53.218;6.564;2023-09-07T02:10:33;46974.97;;;-142.92;97.77
56456;BME280;42354;53.218;6.564;2023-09-07T02:12:58;46970.88;;;-142.92;97.99
56456;BME280;42354;53.218;6.564;2023-09-07T02:15:24;46981.13;;;-142.92;98.70
56456;BME280;42354;53.218;6.564;2023-09-07T02:17:49;46993.44;;;-142.92;98.92
56456;BME280;42354;53.218;6.564;2023-09-07T02:20:15;46974.97;;;-142.92;99.46
56456;BME280;42354;53.218;6.564;2023-09-07T02:22:41;46987.28;;;-142.92;99.80
56456;BME280;42354;53.218;6.564;2023-09-07T02:25:07;46972.91;;;-142.92;100.00
56456;BME280;42354;53.218;6.564;2023-09-07T02:27:33;46974.97;;;-142.92;100.00
56456;BME280;42354;53.218;6.564;2023-09-07T02:29:59;46989.34;;;-142.92;100.00
56456;BME280;42354;53.218;6.564;2023-09-07T02:32:24;46981.13;;;-142.92;100.00
56456;BME280;42354;53.218;6.564;2023-09-07T02:34:50;46966.75;;;-142.92;100.00
56456;BME280;42354;53.218;6.564;2023-09-07T02:37:15;46960.59;;;-142.92;100.00
56456;BME280;42354;53.218;6.564;2023-09-07T02:39:42;46979.06;;;-142.92;100.00
56456;BME280;42354;53.218;6.564;2023-09-07T02:42:07;46977.03;;;-142.92;100.00
56456;BME280;42354;53.218;6.564;2023-09-07T02:44:32;46987.28;;;-142.92;100.00
56456;BME280;42354;53.218;6.564;2023-09-07T02:46:58;46983.19;;;-142.92;100.00
56456;BME280;42354;53.218;6.564;2023-09-07T02:49:23;46983.19;;;-142.92;100.00
56456;BME280;42354;53.218;6.564;2023-09-07T02:51:48;46974.97;;;-142.92;100.00
56456;BME280;42354;53.218;6.564;2023-09-07T02:54:14;46970.88;;;-142.92;100.00
56456;BME280;42354;53.218;6.564;2023-09-07T02:56:41;46981.13;;;-142.92;100.00
56456;BME280;42354;53.218;6.564;2023-09-07T02:59:06;46985.22;;;-142.92;100.00
56456;BME280;42354;53.218;6.564;2023-09-07T03:01:32;46983.19;;;-142.92;100.00
56456;BME280;42354;53.218;6.564;2023-09-07T03:03:57;46964.72;;;-142.92;100.00
56456;BME280;42354;53.218;6.564;2023-09-07T03:06:23;46970.88;;;-142.92;100.00
56456;BME280;42354;53.218;6.564;2023-09-07T03:08:48;46987.28;;;-142.92;100.00
56456;BME280;42354;53.218;6.564;2023-09-07T03:11:13;46987.28;;;-142.92;100.00
56456;BME280;42354;53.218;6.564;2023-09-07T03:13:39;46981.13;;;-142.92;100.00
56456;BME280;42354;53.218;6.564;2023-09-07T03:16:05;46974.97;;;-142.92;100.00
56456;BME280;42354;53.218;6.564;2023-09-07T03:18:31;46948.28;;;-142.92;100.00
56456;BME280;42354;53.218;6.564;2023-09-07T03:21:01;46970.88;;;-142.92;100.00
56456;BME280;42354;53.218;6.564;2023-09-07T03:23:32;46972.91;;;-142.92;100.00
56456;BME280;42354;53.218;6.564;2023-09-07T03:25:58;46981.13;;;-142.92;100.00
56456;BME280;42354;53.218;6.564;2023-09-07T03:28:24;46989.34;;;-142.92;100.00
56456;BME280;42354;53.218;6.564;2023-09-07T03:30:51;46987.28;;;-142.92;100.00
56456;BME280;42354;53.218;6.564;2023-09-07T03:33:16;46991.38;;;-142.92;100.00
56456;BME280;42354;53.218;6.564;2023-09-07T03:35:41;46974.97;;;-142.92;100.00
56456;BME280;42354;53.218;6.564;2023-09-07T03:38:07;46960.59;;;-142.92;100.00
56456;BME280;42354;53.218;6.564;2023-09-07T03:40:32;46979.06;;;-142.92;100.00
56456;BME280;42354;53.218;6.564;2023-09-07T03:42:58;46962.66;;;-142.92;100.00
56456;BME280;42354;53.218;6.564;2023-09-07T03:45:23;46974.97;;;-142.92;100.00
56456;BME280;42354;53.218;6.564;2023-09-07T03:47:48;46977.03;;;-142.92;100.00
56456;BME280;42354;53.218;6.564;2023-09-07T03:50:14;46970.88;;;-142.92;100.00
56456;BME280;42354;53.218;6.564;2023-09-07T03:52:40;46962.66;;;-142.92;100.00
56456;BME280;42354;53.218;6.564;2023-09-07T03:55:06;46985.22;;;-142.92;100.00
56456;BME280;42354;53.218;6.564;2023-09-07T03:57:33;46966.75;;;-142.92;100.00
56456;BME280;42354;53.218;6.564;2023-09-07T04:00:00;46960.59;;;-142.92;100.00
56456;BME280;42354;53.218;6.564;2023-09-07T04:02:25;46968.81;;;-142.92;100.00
56456;BME280;42354;53.218;6.564;2023-09-07T04:04:54;46968.81;;;-142.92;100.00
56456;BME280;42354;53.218;6.564;2023-09-07T04:07:22;46985.22;;;-142.92;100.00
56456;BME280;42354;53.218;6.564;2023-09-07T04:09:51;46972.91;;;-142.92;100.00
56456;BME280;42354;53.218;6.564;2023-09-07T04:12:16;46981.13;;;-142.92;100.00
56456;BME280;42354;53.218;6.564;2023-09-07T04:14:42;46977.03;;;-142.92;100.00
56456;BME280;42354;53.218;6.564;2023-09-07T04:17:07;46977.03;;;-142.92;100.00
56456;BME280;42354;53.218;6.564;2023-09-07T04:19:34;46970.88;;;-142.92;100.00
56456;BME280;42354;53.218;6.564;2023-09-07T04:22:00;46981.13;;;-142.92;100.00
56456;BME280;42354;53.218;6.564;2023-09-07T04:24:25;46964.72;;;-142.92;100.00
56456;BME280;42354;53.218;6.564;2023-09-07T04:26:53;46999.59;;;-142.92;100.00
56456;BME280;42354;53.218;6.564;2023-09-07T04:29:18;46995.50;;;-142.92;100.00
56456;BME280;42354;53.218;6.564;2023-09-07T04:31:43;46999.59;;;-142.92;100.00
56456;BME280;42354;53.218;6.564;2023-09-07T04:34:09;46958.56;;;-142.92;100.00
56456;BME280;42354;53.218;6.564;2023-09-07T04:36:34;46983.19;;;-142.92;100.00
56456;BME280;42354;53.218;6.564;2023-09-07T04:39:00;46974.97;;;-142.92;100.00
56456;BME280;42354;53.218;6.564;2023-09-07T04:41:25;46997.53;;;-142.92;100.00
56456;BME280;42354;53.218;6.564;2023-09-07T04:43:50;46970.88;;;-142.92;100.00
56456;BME280;42354;53.218;6.564;2023-09-07T04:46:16;46981.13;;;-142.92;100.00
56456;BME280;42354;53.218;6.564;2023-09-07T04:48:42;46983.19;;;-142.92;100.00
56456;BME280;42354;53.218;6.564;2023-09-07T04:51:09;46987.28;;;-142.92;100.00
56456;BME280;42354;53.218;6.564;2023-09-07T04:53:38;46968.81;;;-142.92;100.00
56456;BME280;42354;53.218;6.564;2023-09-07T04:56:05;46983.19;;;-142.92;100.00
56456;BME280;42354;53.218;6.564;2023-09-07T04:58:31;46979.06;;;-142.92;100.00
56456;BME280;42354;53.218;6.564;2023-09-07T05:01:09;46979.06;;;-142.92;100.00
56456;BME280;42354;53.218;6.564;2023-09-07T05:03:35;46962.66;;;-142.92;100.00
56456;BME280;42354;53.218;6.564;2023-09-07T05:06:01;46991.38;;;-142.92;100.00
56456;BME280;42354;53.218;6.564;2023-09-07T05:08:28;46983.19;;;-142.92;100.00
56456;BME280;42354;53.218;6.564;2023-09-07T05:11:03;46981.13;;;-142.92;100.00
56456;BME280;42354;53.218;6.564;2023-09-07T05:13:30;46979.06;;;-142.92;100.00
56456;BME280;42354;53.218;6.564;2023-09-07T05:15:56;46974.97;;;-142.92;100.00
56456;BME280;42354;53.218;6.564;2023-09-07T05:18:22;46991.38;;;-142.92;100.00
56456;BME280;42354;53.218;6.564;2023-09-07T05:20:47;46985.22;;;-142.92;100.00
56456;BME280;42354;53.218;6.564;2023-09-07T05:23:20;46979.06;;;-142.92;100.00
56456;BME280;42354;53.218;6.564;2023-09-07T05:25:48;46970.88;;;-142.92;100.00
56456;BME280;42354;53.218;6.564;2023-09-07T05:28:14;46985.22;;;-142.92;100.00
56456;BME280;42354;53.218;6.564;2023-09-07T05:30:43;46983.19;;;-142.92;100.00
56456;BME280;42354;53.218;6.564;2023-09-07T05:33:12;46985.22;;;-142.92;100.00
56456;BME280;42354;53.218;6.564;2023-09-07T05:35:39;46987.28;;;-142.92;100.00
56456;BME280;42354;53.218;6.564;2023-09-07T05:38:05;46974.97;;;-142.92;100.00
56456;BME280;42354;53.218;6.564;2023-09-07T05:40:34;46968.81;;;-142.92;100.00
56456;BME280;42354;53.218;6.564;2023-09-07T05:42:59;46983.19;;;-142.92;100.00
56456;BME280;42354;53.218;6.564;2023-09-07T05:45:26;46987.28;;;-142.92;100.00
56456;BME280;42354;53.218;6.564;2023-09-07T05:47:51;46974.97;;;-142.92;100.00
56456;BME280;42354;53.218;6.564;2023-09-07T05:50:17;46985.22;;;-142.92;100.00
56456;BME280;42354;53.218;6.564;2023-09-07T05:52:42;46983.19;;;-142.92;100.00
56456;BME280;42354;53.218;6.564;2023-09-07T05:55:08;46974.97;;;-142.92;100.00
56456;BME280;42354;53.218;6.564;2023-09-07T05:57:33;46991.38;;;-142.92;100.00
56456;BME280;42354;53.218;6.564;2023-09-07T05:59:58;46972.91;;;-142.92;100.00
56456;BME280;42354;53.218;6.564;2023-09-07T06:02:24;46993.44;;;-142.92;99.95
56456;BME280;42354;53.218;6.564;2023-09-07T06:04:50;46964.72;;;-142.92;99.26
56456;BME280;42354;53.218;6.564;2023-09-07T06:07:15;46987.28;;;-142.92;98.41
56456;BME280;42354;53.218;6.564;2023-09-07T06:09:40;46981.13;;;-142.92;97.90
56456;BME280;42354;53.218;6.564;2023-09-07T06:12:06;46979.06;;;-142.92;96.85
56456;BME280;42354;53.218;6.564;2023-09-07T06:14:31;46983.19;;;-142.92;95.68
56456;BME280;42354;53.218;6.564;2023-09-07T06:16:57;46970.88;;;-142.92;94.59
56456;BME280;42354;53.218;6.564;2023-09-07T06:19:22;46993.44;;;-142.92;93.36
56456;BME280;42354;53.218;6.564;2023-09-07T06:21:48;46995.50;;;-142.92;92.09
56456;BME280;42354;53.218;6.564;2023-09-07T06:24:14;46987.28;;;-142.92;90.82
56456;BME280;42354;53.218;6.564;2023-09-07T06:26:39;46981.13;;;-142.92;89.91
56456;BME280;42354;53.218;6.564;2023-09-07T06:29:05;46981.13;;;-142.92;88.62
56456;BME280;42354;53.218;6.564;2023-09-07T06:31:30;46981.13;;;-142.92;87.63
56456;BME280;42354;53.218;6.564;2023-09-07T06:33:56;46981.13;;;-142.92;86.09
56456;BME280;42354;53.218;6.564;2023-09-07T06:36:22;46979.06;;;-142.92;84.47
56456;BME280;42354;53.218;6.564;2023-09-07T06:38:47;46977.03;;;-142.92;83.37
56456;BME280;42354;53.218;6.564;2023-09-07T06:41:13;46983.19;;;-142.92;82.13
56456;BME280;42354;53.218;6.564;2023-09-07T06:43:38;46983.19;;;-142.92;80.88
56456;BME280;42354;53.218;6.564;2023-09-07T06:46:08;46974.97;;;-142.92;79.54
56456;BME280;42354;53.218;6.564;2023-09-07T06:48:34;46987.28;;;-142.92;78.63
56456;BME280;42354;53.218;6.564;2023-09-07T06:51:03;46979.06;;;-142.92;77.57
56456;BME280;42354;53.218;6.564;2023-09-07T06:53:29;46974.97;;;-142.92;77.00
56456;BME280;42354;53.218;6.564;2023-09-07T06:55:59;46977.03;;;-142.92;75.09
56456;BME280;42354;53.218;6.564;2023-09-07T06:58:25;46979.06;;;-142.92;74.50
56456;BME280;42354;53.218;6.564;2023-09-07T07:00:50;46987.28;;;-142.92;73.25
56456;BME280;42354;53.218;6.564;2023-09-07T07:03:16;46974.97;;;-142.92;72.55
56456;BME280;42354;53.218;6.564;2023-09-07T07:05:41;46983.19;;;-142.92;71.50
56456;BME280;42354;53.218;6.564;2023-09-07T07:08:07;46974.97;;;-142.92;70.91
56456;BME280;42354;53.218;6.564;2023-09-07T07:10:33;46974.97;;;-142.92;70.31
56456;BME280;42354;53.218;6.564;2023-09-07T07:12:58;46974.97;;;-142.92;69.39
56456;BME280;42354;53.218;6.564;2023-09-07T07:15:25;46972.91;;;-142.92;67.79
56456;BME280;42354;53.218;6.564;2023-09-07T07:17:50;46977.03;;;-142.92;66.80
56456;BME280;42354;53.218;6.564;2023-09-07T07:20:15;46974.97;;;-142.92;66.01
56456;BME280;42354;53.218;6.564;2023-09-07T07:22:41;46966.75;;;-142.92;64.48
56456;BME280;42354;53.218;6.564;2023-09-07T07:25:06;46974.97;;;-142.92;63.96
56456;BME280;42354;53.218;6.564;2023-09-07T07:27:32;46979.06;;;-142.92;63.41
56456;BME280;42354;53.218;6.564;2023-09-07T07:29:58;46983.19;;;-142.92;62.32
56456;BME280;42354;53.218;6.564;2023-09-07T07:32:24;46972.91;;;-142.92;61.97
56456;BME280;42354;53.218;6.564;2023-09-07T07:34:49;46974.97;;;-142.92;61.88
56456;BME280;42354;53.218;6.564;2023-09-07T07:37:15;46989.34;;;-142.92;61.62
56456;BME280;42354;53.218;6.564;2023-09-07T07:39:43;46983.19;;;-142.92;61.26
56456;BME280;42354;53.218;6.564;2023-09-07T07:42:08;46974.97;;;-142.92;61.38
56456;BME280;42354;53.218;6.564;2023-09-07T07:44:33;46972.91;;;-142.92;60.72
56456;BME280;42354;53.218;6.564;2023-09-07T07:46:59;46983.19;;;-142.92;60.75
56456;BME280;42354;53.218;6.564;2023-09-07T07:49:24;46974.97;;;-142.92;60.22
56456;BME280;42354;53.218;6.564;2023-09-07T07:51:50;46970.88;;;-142.92;58.80
56456;BME280;42354;53.218;6.564;2023-09-07T07:54:16;46985.22;;;-142.92;58.47
56456;BME280;42354;53.218;6.564;2023-09-07T07:56:42;46987.28;;;-142.92;57.05
56456;BME280;42354;53.218;6.564;2023-09-07T07:59:07;46972.91;;;-142.92;55.54
56456;BME280;42354;53.218;6.564;2023-09-07T08:01:32;46983.19;;;-142.92;54.37
56456;BME280;42354;53.218;6.564;2023-09-07T08:03:58;46979.06;;;-142.92;53.49
56456;BME280;42354;53.218;6.564;2023-09-07T08:06:23;46974.97;;;-142.92;52.49
56456;BME280;42354;53.218;6.564;2023-09-07T08:08:50;46987.28;;;-142.92;51.20
56456;BME280;42354;53.218;6.564;2023-09-07T08:11:16;46974.97;;;-142.92;51.19
56456;BME280;42354;53.218;6.564;2023-09-07T08:13:42;46972.91;;;-142.92;50.48
56456;BME280;42354;53.218;6.564;2023-09-07T08:16:13;46977.03;;;-142.92;50.30
56456;BME280;42354;53.218;6.564;2023-09-07T08:18:40;46974.97;;;-142.92;50.40
56456;BME280;42354;53.218;6.564;2023-09-07T08:21:05;46981.13;;;-142.92;49.71
56456;BME280;42354;53.218;6.564;2023-09-07T08:23:32;46981.13;;;-142.92;49.72
56456;BME280;42354;53.218;6.564;2023-09-07T08:25:58;46974.97;;;-142.92;49.65
56456;BME280;42354;53.218;6.564;2023-09-07T08:28:23;46977.03;;;-142.92;49.78
56456;BME280;42354;53.218;6.564;2023-09-07T08:30:51;46974.97;;;-142.92;49.02
56456;BME280;42354;53.218;6.564;2023-09-07T08:33:21;46974.97;;;-142.92;48.58
56456;BME280;42354;53.218;6.564;2023-09-07T08:35:52;46977.03;;;-142.92;48.40
56456;BME280;42354;53.218;6.564;2023-09-07T08:38:18;46983.19;;;-142.92;48.20
56456;BME280;42354;53.218;6.564;2023-09-07T08:40:44;46964.72;;;-142.92;48.16
56456;BME280;42354;53.218;6.564;2023-09-07T08:43:11;46977.03;;;-142.92;47.38
56456;BME280;42354;53.218;6.564;2023-09-07T08:45:41;46972.91;;;-142.92;46.73
56456;BME280;42354;53.218;6.564;2023-09-07T08:48:12;46972.91;;;-142.92;46.15
56456;BME280;42354;53.218;6.564;2023-09-07T08:50:39;46983.19;;;-142.92;45.86
56456;BME280;42354;53.218;6.564;2023-09-07T08:53:08;46979.06;;;-142.92;45.18
56456;BME280;42354;53.218;6.564;2023-09-07T08:55:33;46968.81;;;-142.92;44.59
56456;BME280;42354;53.218;6.564;2023-09-07T08:57:59;46979.06;;;-142.92;44.45
56456;BME280;42354;53.218;6.564;2023-09-07T09:00:24;46977.03;;;-142.92;43.61
56456;BME280;42354;53.218;6.564;2023-09-07T09:02:50;46970.88;;;-142.92;43.01
56456;BME280;42354;53.218;6.564;2023-09-07T09:05:19;46974.97;;;-142.92;42.70
56456;BME280;42354;53.218;6.564;2023-09-07T09:07:45;46972.91;;;-142.92;41.98
56456;BME280;42354;53.218;6.564;2023-09-07T09:10:10;46987.28;;;-142.92;42.00
56456;BME280;42354;53.218;6.564;2023-09-07T09:12:44;46983.19;;;-142.92;41.60
56456;BME280;42354;53.218;6.564;2023-09-07T09:15:10;46970.88;;;-142.92;41.23
56456;BME280;42354;53.218;6.564;2023-09-07T09:17:36;46964.72;;;-142.92;40.14
56456;BME280;42354;53.218;6.564;2023-09-07T09:20:01;46968.81;;;-142.92;39.61
56456;BME280;42354;53.218;6.564;2023-09-07T09:22:30;46981.13;;;-142.92;38.89
56456;BME280;42354;53.218;6.564;2023-09-07T09:24:56;46972.91;;;-142.92;38.61
56456;BME280;42354;53.218;6.564;2023-09-07T09:27:21;46977.03;;;-142.92;37.82
56456;BME280;42354;53.218;6.564;2023-09-07T09:29:49;46983.19;;;-142.92;37.39
56456;BME280;42354;53.218;6.564;2023-09-07T09:32:16;46972.91;;;-142.92;37.63
56456;BME280;42354;53.218;6.564;2023-09-07T09:34:43;46958.56;;;-142.92;37.30
56456;BME280;42354;53.218;6.564;2023-09-07T09:37:13;46970.88;;;-142.92;36.71
56456;BME280;42354;53.218;6.564;2023-09-07T09:39:42;46985.22;;;-142.92;37.15
56456;BME280;42354;53.218;6.564;2023-09-07T09:42:09;46983.19;;;-142.92;37.32
56456;BME280;42354;53.218;6.564;2023-09-07T09:44:34;46966.75;;;-142.92;36.90
56456;BME280;42354;53.218;6.564;2023-09-07T09:47:03;46979.06;;;-142.92;36.97
56456;BME280;42354;53.218;6.564;2023-09-07T09:49:29;46968.81;;;-142.92;36.83
56456;BME280;42354;53.218;6.564;2023-09-07T09:51:55;46962.66;;;-142.92;36.62
56456;BME280;42354;53.218;6.564;2023-09-07T09:54:23;46974.97;;;-142.92;36.38
56456;BME280;42354;53.218;6.564;2023-09-07T09:56:49;46966.75;;;-142.92;36.05
56456;BME280;42354;53.218;6.564;2023-09-07T09:59:17;46981.13;;;-142.92;35.83
56456;BME280;42354;53.218;6.564;2023-09-07T10:01:49;46979.06;;;-142.92;35.31
56456;BME280;42354;53.218;6.564;2023-09-07T10:04:17;46974.97;;;-142.92;34.94
56456;BME280;42354;53.218;6.564;2023-09-07T10:06:59;46966.75;;;-142.92;34.97
56456;BME280;42354;53.218;6.564;2023-09-07T10:09:32;46974.97;;;-142.92;35.01
56456;BME280;42354;53.218;6.564;2023-09-07T10:12:01;46981.13;;;-142.92;35.01
56456;BME280;42354;53.218;6.564;2023-09-07T10:14:41;46970.88;;;-142.92;35.14
56456;BME280;42354;53.218;6.564;2023-09-07T10:17:08;46968.81;;;-142.92;34.67
56456;BME280;42354;53.218;6.564;2023-09-07T10:19:35;46970.88;;;-142.92;34.49
56456;BME280;42354;53.218;6.564;2023-09-07T10:22:06;46970.88;;;-142.92;34.29
56456;BME280;42354;53.218;6.564;2023-09-07T10:24:33;46974.97;;;-142.92;34.08
56456;BME280;42354;53.218;6.564;2023-09-07T10:27:04;46981.13;;;-142.92;34.12
56456;BME280;42354;53.218;6.564;2023-09-07T10:30:00;46972.91;;;-142.92;33.80
56456;BME280;42354;53.218;6.564;2023-09-07T10:32:41;46970.88;;;-142.92;33.67
56456;BME280;42354;53.218;6.564;2023-09-07T10:35:18;46974.97;;;-142.92;33.40
56456;BME280;42354;53.218;6.564;2023-09-07T10:37:45;46968.81;;;-142.92;33.52
56456;BME280;42354;53.218;6.564;2023-09-07T10:40:21;46966.75;;;-142.92;33.17
56456;BME280;42354;53.218;6.564;2023-09-07T10:42:47;46974.97;;;-142.92;33.07
56456;BME280;42354;53.218;6.564;2023-09-07T10:45:14;46966.75;;;-142.92;33.00
56456;BME280;42354;53.218;6.564;2023-09-07T10:47:43;46981.13;;;-142.92;32.87
56456;BME280;42354;53.218;6.564;2023-09-07T10:50:12;46968.81;;;-142.92;32.81
56456;BME280;42354;53.218;6.564;2023-09-07T10:52:40;46970.88;;;-142.92;32.67
56456;BME280;42354;53.218;6.564;2023-09-07T10:55:10;46970.88;;;-142.92;32.44
56456;BME280;42354;53.218;6.564;2023-09-07T10:57:46;46970.88;;;-142.92;32.51
56456;BME280;42354;53.218;6.564;2023-09-07T11:00:13;46966.75;;;-142.92;32.40
56456;BME280;42354;53.218;6.564;2023-09-07T11:02:42;46964.72;;;-142.92;32.08
56456;BME280;42354;53.218;6.564;2023-09-07T11:05:09;46974.97;;;-142.92;32.08
56456;BME280;42354;53.218;6.564;2023-09-07T11:07:36;46966.75;;;-142.92;32.25
56456;BME280;42354;53.218;6.564;2023-09-07T11:10:05;46970.88;;;-142.92;31.88
56456;BME280;42354;53.218;6.564;2023-09-07T11:12:36;46970.88;;;-142.92;31.85
56456;BME280;42354;53.218;6.564;2023-09-07T11:15:04;46960.59;;;-142.92;31.85
56456;BME280;42354;53.218;6.564;2023-09-07T11:17:31;46956.50;;;-142.92;31.93
56456;BME280;42354;53.218;6.564;2023-09-07T11:19:56;46972.91;;;-142.92;31.43
56456;BME280;42354;53.218;6.564;2023-09-07T11:22:22;46972.91;;;-142.92;31.17
56456;BME280;42354;53.218;6.564;2023-09-07T11:24:48;46970.88;;;-142.92;31.01
56456;BME280;42354;53.218;6.564;2023-09-07T11:27:13;46966.75;;;-142.92;30.72
56456;BME280;42354;53.218;6.564;2023-09-07T11:29:41;46962.66;;;-142.92;30.22
56456;BME280;42354;53.218;6.564;2023-09-07T11:32:11;46970.88;;;-142.92;29.97
56456;BME280;42354;53.218;6.564;2023-09-07T11:34:49;46958.56;;;-142.92;29.98
56456;BME280;42354;53.218;6.564;2023-09-07T11:37:15;46977.03;;;-142.92;29.96
56456;BME280;42354;53.218;6.564;2023-09-07T11:39:40;46977.03;;;-142.92;30.07
56456;BME280;42354;53.218;6.564;2023-09-07T11:42:05;46970.88;;;-142.92;30.13
56456;BME280;42354;53.218;6.564;2023-09-07T11:44:31;46970.88;;;-142.92;30.02
56456;BME280;42354;53.218;6.564;2023-09-07T11:46:56;46960.59;;;-142.92;29.87
56456;BME280;42354;53.218;6.564;2023-09-07T11:49:22;46972.91;;;-142.92;29.59
56456;BME280;42354;53.218;6.564;2023-09-07T11:51:47;46970.88;;;-142.92;29.44
56456;BME280;42354;53.218;6.564;2023-09-07T11:54:14;46962.66;;;-142.92;29.56
56456;BME280;42354;53.218;6.564;2023-09-07T11:56:39;46972.91;;;-142.92;29.76
56456;BME280;42354;53.218;6.564;2023-09-07T11:59:08;46970.88;;;-142.92;29.67
56456;BME280;42354;53.218;6.564;2023-09-07T12:01:34;46966.75;;;-142.92;29.55
56456;BME280;42354;53.218;6.564;2023-09-07T12:04:00;46970.88;;;-142.92;29.13
56456;BME280;42354;53.218;6.564;2023-09-07T12:06:25;46964.72;;;-142.92;29.20
56456;BME280;42354;53.218;6.564;2023-09-07T12:09:01;46966.75;;;-142.92;28.74
56456;BME280;42354;53.218;6.564;2023-09-07T12:11:27;46966.75;;;-142.92;28.82
56456;BME280;42354;53.218;6.564;2023-09-07T12:13:52;46970.88;;;-142.92;29.02
56456;BME280;42354;53.218;6.564;2023-09-07T12:16:18;46964.72;;;-142.92;29.13
56456;BME280;42354;53.218;6.564;2023-09-07T12:18:43;46962.66;;;-142.92;28.94
56456;BME280;42354;53.218;6.564;2023-09-07T12:21:12;46974.97;;;-142.92;28.55
56456;BME280;42354;53.218;6.564;2023-09-07T12:23:38;46966.75;;;-142.92;28.37
56456;BME280;42354;53.218;6.564;2023-09-07T12:26:04;46964.72;;;-142.92;28.39
56456;BME280;42354;53.218;6.564;2023-09-07T12:28:32;46966.75;;;-142.92;28.49
56456;BME280;42354;53.218;6.564;2023-09-07T12:30:58;46972.91;;;-142.92;28.66
56456;BME280;42354;53.218;6.564;2023-09-07T12:33:24;46964.72;;;-142.92;28.99
56456;BME280;42354;53.218;6.564;2023-09-07T12:35:49;46960.59;;;-142.92;29.44